Startpagina
METAR-TAF:

METAR-TAF

Vliegvelden :

Tongatapu, Tonga

breedte: 21-14S, lengte: 175-09W, hoogte: 38 m

Actueel weer

Dit bericht is 1 uur en het 1 minuten geleden gemaakt, om 12:00 UTC
Weinig wind
Temperatuur 22°C
Vochtigheid 94%
Druk 1015 hPa
Zicht 10 km of meer
Weinig wolken op 1600 ft

METAR: NFTF 211200Z 00000KT 9999 FEW016 22/21 Q1015 RMK GRASS DEW

Tijdstip: 02:01 (13:01 UTC)

Verwachting

Dit bericht is 1 uur en het 55 minuten geleden gemaakt, om 11:06 UTC
Verwachting geldig van 21 om 12 UTC tot 22 om 12 UTC
Wind 3 kt uit variabele richting
Zicht 10 km of meer
Weinig wolken op 1600 ft
Van 21 om 1600 UTC
Wind 3 kt uit variabele richting
Zicht: 0600 m
Weinig wolken op 1800 ft
mist
Van 1930 UTC
Wind 7 kt uit het oosten
Zicht 10 km of meer
Verspreide wolken op 1800 ft

TAF: NFTF 211106Z 2112/2212 VRB03KT 9999 FEW016 FM211600 VRB03KT 0600 FG FEW018 FM1930 08007KT 9999 SCT018

Waarnemingen en weersverwachtingen van meer dan 4000 vliegvelden (METAR en TAF).

De beschikbare stations zijn de gele en rode punten op de kaart.

Ga met uw muis naar het station om de naam te zien.

Klik dan om waarnemingen en weersverwachtingen te zien.

kaart wijzigen: klik op de groene knoppen met een zwart kruis om in te zoomen, op de groene knop met een streepje om uit te zoomen of op de groene pijlen voor aangrenzende kaarten.


METAR-TAF: